Terminal Aerodrome Forecast
Issued by NWS

Home | Current Version | Previous Version | Text Only | Print | Product List | Glossary On
Versions: 1 2 3 4 5 6 7 8 9 10 11 12
501
FTUS43 KFGF 031120
TAFDVL
TAF
KDVL 031120Z 0312/0412 25007KT P6SM SCT200
     FM031400 33013KT P6SM FEW250
     FM031700 36018G26KT P6SM FEW250
     FM040100 36012KT P6SM FEW250
     FM040300 01007KT P6SM SKC=

USA.gov is the U.S. government's official web portal to all federal, state and local government web resources and services.